sensor_id;sensor_type;location;lat;lon;timestamp;P1;durP1;ratioP1;P2;durP2;ratioP2
12363;SDS011;6246;50.826;4.712;2023-02-24T00:01:37;16.50;;;10.50;;
12363;SDS011;6246;50.826;4.712;2023-02-24T00:04:05;15.90;;;9.37;;
12363;SDS011;6246;50.826;4.712;2023-02-24T00:06:32;19.97;;;10.10;;
12363;SDS011;6246;50.826;4.712;2023-02-24T00:09:05;14.53;;;9.37;;
12363;SDS011;6246;50.826;4.712;2023-02-24T00:11:32;12.90;;;9.53;;
12363;SDS011;6246;50.826;4.712;2023-02-24T00:13:58;12.77;;;9.20;;
12363;SDS011;6246;50.826;4.712;2023-02-24T00:16:24;12.30;;;9.20;;
12363;SDS011;6246;50.826;4.712;2023-02-24T00:18:51;12.97;;;9.23;;
12363;SDS011;6246;50.826;4.712;2023-02-24T00:21:17;17.03;;;9.60;;
12363;SDS011;6246;50.826;4.712;2023-02-24T00:23:43;15.30;;;9.20;;
12363;SDS011;6246;50.826;4.712;2023-02-24T00:26:14;13.30;;;8.83;;
12363;SDS011;6246;50.826;4.712;2023-02-24T00:28:40;12.47;;;8.60;;
12363;SDS011;6246;50.826;4.712;2023-02-24T00:31:07;12.13;;;8.67;;
12363;SDS011;6246;50.826;4.712;2023-02-24T00:33:35;12.43;;;8.93;;
12363;SDS011;6246;50.826;4.712;2023-02-24T00:36:10;14.83;;;8.83;;
12363;SDS011;6246;50.826;4.712;2023-02-24T00:38:37;12.97;;;8.77;;
12363;SDS011;6246;50.826;4.712;2023-02-24T00:41:07;13.77;;;8.40;;
12363;SDS011;6246;50.826;4.712;2023-02-24T00:43:33;11.97;;;8.47;;
12363;SDS011;6246;50.826;4.712;2023-02-24T00:46:01;12.10;;;8.97;;
12363;SDS011;6246;50.826;4.712;2023-02-24T00:48:34;13.43;;;8.77;;
12363;SDS011;6246;50.826;4.712;2023-02-24T00:51:04;13.53;;;8.07;;
12363;SDS011;6246;50.826;4.712;2023-02-24T00:53:31;13.57;;;8.63;;
12363;SDS011;6246;50.826;4.712;2023-02-24T00:55:58;10.70;;;7.87;;
12363;SDS011;6246;50.826;4.712;2023-02-24T00:58:24;11.70;;;8.30;;
12363;SDS011;6246;50.826;4.712;2023-02-24T01:00:54;10.87;;;8.00;;
12363;SDS011;6246;50.826;4.712;2023-02-24T01:03:22;11.33;;;7.77;;
12363;SDS011;6246;50.826;4.712;2023-02-24T01:05:50;11.53;;;7.67;;
12363;SDS011;6246;50.826;4.712;2023-02-24T01:08:16;10.10;;;7.40;;
12363;SDS011;6246;50.826;4.712;2023-02-24T01:10:53;11.53;;;7.23;;
12363;SDS011;6246;50.826;4.712;2023-02-24T01:13:39;11.20;;;7.53;;
12363;SDS011;6246;50.826;4.712;2023-02-24T01:16:05;10.30;;;7.63;;
12363;SDS011;6246;50.826;4.712;2023-02-24T01:18:32;13.67;;;7.73;;
12363;SDS011;6246;50.826;4.712;2023-02-24T01:20:58;11.93;;;7.77;;
12363;SDS011;6246;50.826;4.712;2023-02-24T01:23:24;11.77;;;7.60;;
12363;SDS011;6246;50.826;4.712;2023-02-24T01:25:50;11.03;;;7.10;;
12363;SDS011;6246;50.826;4.712;2023-02-24T01:28:17;10.63;;;6.93;;
12363;SDS011;6246;50.826;4.712;2023-02-24T01:30:43;10.37;;;7.23;;
12363;SDS011;6246;50.826;4.712;2023-02-24T01:33:09;12.37;;;7.23;;
12363;SDS011;6246;50.826;4.712;2023-02-24T01:35:39;9.73;;;7.30;;
12363;SDS011;6246;50.826;4.712;2023-02-24T01:38:06;12.87;;;7.33;;
12363;SDS011;6246;50.826;4.712;2023-02-24T01:40:32;9.30;;;6.80;;
12363;SDS011;6246;50.826;4.712;2023-02-24T01:42:58;9.73;;;6.97;;
12363;SDS011;6246;50.826;4.712;2023-02-24T01:45:26;11.27;;;6.57;;
12363;SDS011;6246;50.826;4.712;2023-02-24T01:47:59;9.10;;;6.43;;
12363;SDS011;6246;50.826;4.712;2023-02-24T01:50:27;13.00;;;6.17;;
12363;SDS011;6246;50.826;4.712;2023-02-24T01:52:54;8.80;;;6.30;;
12363;SDS011;6246;50.826;4.712;2023-02-24T01:55:23;9.43;;;6.40;;
12363;SDS011;6246;50.826;4.712;2023-02-24T01:57:52;11.00;;;7.00;;
12363;SDS011;6246;50.826;4.712;2023-02-24T02:00:19;11.33;;;6.57;;
12363;SDS011;6246;50.826;4.712;2023-02-24T02:03:02;10.53;;;6.70;;
12363;SDS011;6246;50.826;4.712;2023-02-24T02:05:32;9.13;;;5.80;;
12363;SDS011;6246;50.826;4.712;2023-02-24T02:07:58;10.07;;;5.80;;
12363;SDS011;6246;50.826;4.712;2023-02-24T02:10:24;9.07;;;5.90;;
12363;SDS011;6246;50.826;4.712;2023-02-24T02:12:52;8.70;;;5.90;;
12363;SDS011;6246;50.826;4.712;2023-02-24T02:15:18;9.10;;;6.00;;
12363;SDS011;6246;50.826;4.712;2023-02-24T02:28:11;8.47;;;5.87;;
12363;SDS011;6246;50.826;4.712;2023-02-24T02:43:40;7.97;;;5.40;;
12363;SDS011;6246;50.826;4.712;2023-02-24T02:46:11;8.90;;;5.33;;
12363;SDS011;6246;50.826;4.712;2023-02-24T02:48:41;6.67;;;5.07;;
12363;SDS011;6246;50.826;4.712;2023-02-24T02:51:09;8.60;;;5.40;;
12363;SDS011;6246;50.826;4.712;2023-02-24T02:53:41;9.97;;;5.47;;
12363;SDS011;6246;50.826;4.712;2023-02-24T02:56:11;8.07;;;5.20;;
12363;SDS011;6246;50.826;4.712;2023-02-24T02:58:41;6.87;;;5.07;;
12363;SDS011;6246;50.826;4.712;2023-02-24T03:01:10;8.47;;;4.93;;
12363;SDS011;6246;50.826;4.712;2023-02-24T03:03:37;8.27;;;5.20;;
12363;SDS011;6246;50.826;4.712;2023-02-24T03:06:05;5.50;;;4.83;;
12363;SDS011;6246;50.826;4.712;2023-02-24T03:08:33;8.30;;;4.60;;
12363;SDS011;6246;50.826;4.712;2023-02-24T03:11:02;6.40;;;4.83;;
12363;SDS011;6246;50.826;4.712;2023-02-24T03:13:30;7.07;;;4.53;;
12363;SDS011;6246;50.826;4.712;2023-02-24T03:15:58;8.67;;;5.30;;
12363;SDS011;6246;50.826;4.712;2023-02-24T03:18:27;9.27;;;4.73;;
12363;SDS011;6246;50.826;4.712;2023-02-24T03:23:53;10.07;;;4.83;;
12363;SDS011;6246;50.826;4.712;2023-02-24T03:29:10;6.20;;;4.40;;
12363;SDS011;6246;50.826;4.712;2023-02-24T03:36:34;9.87;;;4.50;;
12363;SDS011;6246;50.826;4.712;2023-02-24T03:39:00;8.17;;;4.60;;
12363;SDS011;6246;50.826;4.712;2023-02-24T03:41:29;7.60;;;4.60;;
12363;SDS011;6246;50.826;4.712;2023-02-24T03:43:59;8.60;;;4.67;;
12363;SDS011;6246;50.826;4.712;2023-02-24T03:46:28;8.63;;;4.60;;
12363;SDS011;6246;50.826;4.712;2023-02-24T03:48:57;8.93;;;4.20;;
12363;SDS011;6246;50.826;4.712;2023-02-24T03:51:24;9.53;;;4.57;;
12363;SDS011;6246;50.826;4.712;2023-02-24T03:54:11;5.77;;;4.30;;
12363;SDS011;6246;50.826;4.712;2023-02-24T04:04:30;7.03;;;3.77;;
12363;SDS011;6246;50.826;4.712;2023-02-24T04:17:21;9.30;;;4.60;;
12363;SDS011;6246;50.826;4.712;2023-02-24T04:19:53;9.87;;;4.40;;
12363;SDS011;6246;50.826;4.712;2023-02-24T04:22:21;6.47;;;3.80;;
12363;SDS011;6246;50.826;4.712;2023-02-24T04:24:49;5.40;;;3.67;;
12363;SDS011;6246;50.826;4.712;2023-02-24T04:27:16;6.27;;;3.67;;
12363;SDS011;6246;50.826;4.712;2023-02-24T04:29:46;7.80;;;3.90;;
12363;SDS011;6246;50.826;4.712;2023-02-24T04:32:15;5.90;;;3.77;;
12363;SDS011;6246;50.826;4.712;2023-02-24T04:34:43;5.87;;;3.53;;
12363;SDS011;6246;50.826;4.712;2023-02-24T04:37:09;6.10;;;3.80;;
12363;SDS011;6246;50.826;4.712;2023-02-24T04:39:35;5.90;;;3.80;;
12363;SDS011;6246;50.826;4.712;2023-02-24T04:42:04;6.70;;;3.97;;
12363;SDS011;6246;50.826;4.712;2023-02-24T04:44:30;7.30;;;4.07;;
12363;SDS011;6246;50.826;4.712;2023-02-24T04:46:57;7.20;;;3.60;;
12363;SDS011;6246;50.826;4.712;2023-02-24T04:49:24;6.60;;;3.87;;
12363;SDS011;6246;50.826;4.712;2023-02-24T04:51:50;5.53;;;3.67;;
12363;SDS011;6246;50.826;4.712;2023-02-24T04:54:17;4.87;;;3.47;;
12363;SDS011;6246;50.826;4.712;2023-02-24T04:56:44;5.70;;;3.27;;
12363;SDS011;6246;50.826;4.712;2023-02-24T04:59:12;8.77;;;3.63;;
12363;SDS011;6246;50.826;4.712;2023-02-24T05:01:39;7.13;;;3.60;;
12363;SDS011;6246;50.826;4.712;2023-02-24T05:04:06;6.80;;;3.30;;
12363;SDS011;6246;50.826;4.712;2023-02-24T05:06:32;9.70;;;3.47;;
12363;SDS011;6246;50.826;4.712;2023-02-24T05:08:59;8.77;;;3.47;;
12363;SDS011;6246;50.826;4.712;2023-02-24T05:11:25;5.10;;;3.37;;
12363;SDS011;6246;50.826;4.712;2023-02-24T05:13:56;6.03;;;3.53;;
12363;SDS011;6246;50.826;4.712;2023-02-24T05:16:22;6.80;;;3.17;;
12363;SDS011;6246;50.826;4.712;2023-02-24T05:18:48;4.77;;;3.07;;
12363;SDS011;6246;50.826;4.712;2023-02-24T05:21:15;5.87;;;3.23;;
12363;SDS011;6246;50.826;4.712;2023-02-24T05:24:00;4.77;;;2.80;;
12363;SDS011;6246;50.826;4.712;2023-02-24T05:26:30;9.00;;;3.30;;
12363;SDS011;6246;50.826;4.712;2023-02-24T05:28:58;6.13;;;3.40;;
12363;SDS011;6246;50.826;4.712;2023-02-24T05:31:26;6.07;;;2.80;;
12363;SDS011;6246;50.826;4.712;2023-02-24T05:33:53;3.77;;;2.83;;
12363;SDS011;6246;50.826;4.712;2023-02-24T05:36:22;5.27;;;3.10;;
12363;SDS011;6246;50.826;4.712;2023-02-24T05:38:50;4.20;;;2.83;;
12363;SDS011;6246;50.826;4.712;2023-02-24T05:41:19;6.97;;;2.97;;
12363;SDS011;6246;50.826;4.712;2023-02-24T05:43:50;6.80;;;3.30;;
12363;SDS011;6246;50.826;4.712;2023-02-24T05:46:24;15.30;;;3.70;;
12363;SDS011;6246;50.826;4.712;2023-02-24T05:48:53;7.77;;;3.03;;
12363;SDS011;6246;50.826;4.712;2023-02-24T05:51:23;5.47;;;2.90;;
12363;SDS011;6246;50.826;4.712;2023-02-24T05:53:52;10.27;;;3.20;;
12363;SDS011;6246;50.826;4.712;2023-02-24T05:56:20;6.40;;;3.20;;
12363;SDS011;6246;50.826;4.712;2023-02-24T05:58:46;5.30;;;3.03;;
12363;SDS011;6246;50.826;4.712;2023-02-24T06:01:14;7.40;;;3.00;;
12363;SDS011;6246;50.826;4.712;2023-02-24T06:03:43;4.30;;;3.00;;
12363;SDS011;6246;50.826;4.712;2023-02-24T06:06:14;5.67;;;3.23;;
12363;SDS011;6246;50.826;4.712;2023-02-24T06:08:40;3.67;;;2.20;;
12363;SDS011;6246;50.826;4.712;2023-02-24T06:11:07;6.00;;;3.00;;
12363;SDS011;6246;50.826;4.712;2023-02-24T06:13:34;6.47;;;3.30;;
12363;SDS011;6246;50.826;4.712;2023-02-24T06:16:00;3.93;;;2.73;;
12363;SDS011;6246;50.826;4.712;2023-02-24T06:18:26;4.73;;;3.17;;
12363;SDS011;6246;50.826;4.712;2023-02-24T06:20:53;6.90;;;2.87;;
12363;SDS011;6246;50.826;4.712;2023-02-24T06:23:19;5.70;;;2.53;;
12363;SDS011;6246;50.826;4.712;2023-02-24T06:25:45;11.23;;;2.90;;
12363;SDS011;6246;50.826;4.712;2023-02-24T06:28:11;6.63;;;2.30;;
12363;SDS011;6246;50.826;4.712;2023-02-24T06:30:37;6.67;;;2.77;;
12363;SDS011;6246;50.826;4.712;2023-02-24T06:33:03;6.43;;;2.97;;
12363;SDS011;6246;50.826;4.712;2023-02-24T06:35:32;5.03;;;2.93;;
12363;SDS011;6246;50.826;4.712;2023-02-24T06:37:58;5.30;;;2.70;;
12363;SDS011;6246;50.826;4.712;2023-02-24T06:40:24;7.07;;;3.20;;
12363;SDS011;6246;50.826;4.712;2023-02-24T06:42:51;6.93;;;2.93;;
12363;SDS011;6246;50.826;4.712;2023-02-24T06:45:21;11.50;;;3.10;;
12363;SDS011;6246;50.826;4.712;2023-02-24T06:47:48;3.73;;;2.30;;
12363;SDS011;6246;50.826;4.712;2023-02-24T06:50:15;6.30;;;2.73;;
12363;SDS011;6246;50.826;4.712;2023-02-24T06:52:44;4.80;;;2.30;;
12363;SDS011;6246;50.826;4.712;2023-02-24T06:55:10;5.03;;;2.43;;
12363;SDS011;6246;50.826;4.712;2023-02-24T06:57:52;4.27;;;2.07;;
12363;SDS011;6246;50.826;4.712;2023-02-24T07:00:22;7.97;;;2.87;;
12363;SDS011;6246;50.826;4.712;2023-02-24T07:03:00;3.90;;;2.17;;
12363;SDS011;6246;50.826;4.712;2023-02-24T07:05:34;4.40;;;2.47;;
12363;SDS011;6246;50.826;4.712;2023-02-24T07:08:00;6.87;;;2.70;;
12363;SDS011;6246;50.826;4.712;2023-02-24T07:10:26;5.40;;;2.47;;
12363;SDS011;6246;50.826;4.712;2023-02-24T07:12:52;4.80;;;2.27;;
12363;SDS011;6246;50.826;4.712;2023-02-24T07:15:18;4.50;;;2.43;;
12363;SDS011;6246;50.826;4.712;2023-02-24T07:17:45;5.50;;;2.60;;
12363;SDS011;6246;50.826;4.712;2023-02-24T07:20:11;5.03;;;2.83;;
12363;SDS011;6246;50.826;4.712;2023-02-24T07:22:49;6.73;;;3.40;;
12363;SDS011;6246;50.826;4.712;2023-02-24T07:25:15;8.37;;;4.40;;
12363;SDS011;6246;50.826;4.712;2023-02-24T07:27:57;6.07;;;3.50;;
12363;SDS011;6246;50.826;4.712;2023-02-24T07:30:25;5.63;;;2.80;;
12363;SDS011;6246;50.826;4.712;2023-02-24T07:32:51;5.07;;;3.27;;
12363;SDS011;6246;50.826;4.712;2023-02-24T07:35:19;6.43;;;3.50;;
12363;SDS011;6246;50.826;4.712;2023-02-24T07:37:46;4.60;;;3.53;;
12363;SDS011;6246;50.826;4.712;2023-02-24T07:40:13;7.37;;;4.20;;
12363;SDS011;6246;50.826;4.712;2023-02-24T07:42:42;9.43;;;4.73;;
12363;SDS011;6246;50.826;4.712;2023-02-24T07:45:11;9.23;;;4.53;;
12363;SDS011;6246;50.826;4.712;2023-02-24T07:47:37;11.47;;;4.73;;
12363;SDS011;6246;50.826;4.712;2023-02-24T07:50:05;9.40;;;4.77;;
12363;SDS011;6246;50.826;4.712;2023-02-24T07:52:37;8.37;;;5.60;;
12363;SDS011;6246;50.826;4.712;2023-02-24T07:55:03;8.33;;;5.03;;
12363;SDS011;6246;50.826;4.712;2023-02-24T07:57:29;8.30;;;5.23;;
12363;SDS011;6246;50.826;4.712;2023-02-24T07:59:57;7.00;;;4.80;;
12363;SDS011;6246;50.826;4.712;2023-02-24T08:02:24;9.73;;;5.40;;
12363;SDS011;6246;50.826;4.712;2023-02-24T08:04:50;13.13;;;5.40;;
12363;SDS011;6246;50.826;4.712;2023-02-24T08:07:17;10.13;;;5.73;;
12363;SDS011;6246;50.826;4.712;2023-02-24T08:09:48;9.37;;;5.53;;
12363;SDS011;6246;50.826;4.712;2023-02-24T08:12:32;10.03;;;5.10;;
12363;SDS011;6246;50.826;4.712;2023-02-24T08:14:59;8.50;;;5.63;;
12363;SDS011;6246;50.826;4.712;2023-02-24T08:17:32;10.27;;;6.20;;
12363;SDS011;6246;50.826;4.712;2023-02-24T08:19:58;9.17;;;6.00;;
12363;SDS011;6246;50.826;4.712;2023-02-24T08:22:37;11.77;;;7.23;;
12363;SDS011;6246;50.826;4.712;2023-02-24T08:25:08;9.53;;;6.07;;
12363;SDS011;6246;50.826;4.712;2023-02-24T08:27:34;11.67;;;6.20;;
12363;SDS011;6246;50.826;4.712;2023-02-24T08:30:03;9.23;;;5.50;;
12363;SDS011;6246;50.826;4.712;2023-02-24T08:35:14;10.47;;;6.67;;
12363;SDS011;6246;50.826;4.712;2023-02-24T08:37:42;9.47;;;6.30;;
12363;SDS011;6246;50.826;4.712;2023-02-24T08:40:13;10.13;;;6.00;;
12363;SDS011;6246;50.826;4.712;2023-02-24T08:45:30;10.40;;;7.53;;
12363;SDS011;6246;50.826;4.712;2023-02-24T08:48:00;10.30;;;7.37;;
12363;SDS011;6246;50.826;4.712;2023-02-24T08:50:42;11.53;;;7.40;;
12363;SDS011;6246;50.826;4.712;2023-02-24T08:53:09;12.27;;;7.50;;
12363;SDS011;6246;50.826;4.712;2023-02-24T08:55:39;10.93;;;7.53;;
12363;SDS011;6246;50.826;4.712;2023-02-24T08:58:06;12.30;;;8.40;;
12363;SDS011;6246;50.826;4.712;2023-02-24T09:00:35;10.97;;;7.93;;
12363;SDS011;6246;50.826;4.712;2023-02-24T09:03:16;12.40;;;8.23;;
12363;SDS011;6246;50.826;4.712;2023-02-24T09:05:56;14.03;;;8.60;;
12363;SDS011;6246;50.826;4.712;2023-02-24T09:08:22;12.90;;;8.30;;
12363;SDS011;6246;50.826;4.712;2023-02-24T09:10:48;11.20;;;8.03;;
12363;SDS011;6246;50.826;4.712;2023-02-24T09:13:14;13.73;;;9.13;;
12363;SDS011;6246;50.826;4.712;2023-02-24T09:15:42;16.37;;;9.90;;
12363;SDS011;6246;50.826;4.712;2023-02-24T09:18:08;12.50;;;9.17;;
12363;SDS011;6246;50.826;4.712;2023-02-24T09:20:38;14.67;;;9.27;;
12363;SDS011;6246;50.826;4.712;2023-02-24T09:23:23;13.43;;;9.50;;
12363;SDS011;6246;50.826;4.712;2023-02-24T09:25:55;13.70;;;9.67;;
12363;SDS011;6246;50.826;4.712;2023-02-24T09:28:25;12.73;;;9.03;;
12363;SDS011;6246;50.826;4.712;2023-02-24T09:30:55;14.00;;;9.23;;
12363;SDS011;6246;50.826;4.712;2023-02-24T09:38:13;17.40;;;9.83;;
12363;SDS011;6246;50.826;4.712;2023-02-24T09:40:41;14.87;;;10.17;;
12363;SDS011;6246;50.826;4.712;2023-02-24T09:43:20;13.43;;;9.80;;
12363;SDS011;6246;50.826;4.712;2023-02-24T09:46:21;15.57;;;10.60;;
12363;SDS011;6246;50.826;4.712;2023-02-24T09:48:47;16.00;;;9.70;;
12363;SDS011;6246;50.826;4.712;2023-02-24T09:51:18;15.27;;;10.13;;
12363;SDS011;6246;50.826;4.712;2023-02-24T09:53:53;15.33;;;9.80;;
12363;SDS011;6246;50.826;4.712;2023-02-24T09:58:51;15.43;;;9.20;;
12363;SDS011;6246;50.826;4.712;2023-02-24T10:01:28;15.40;;;10.07;;
12363;SDS011;6246;50.826;4.712;2023-02-24T10:06:45;15.67;;;9.53;;
12363;SDS011;6246;50.826;4.712;2023-02-24T10:11:46;16.27;;;9.30;;
12363;SDS011;6246;50.826;4.712;2023-02-24T10:14:24;15.73;;;8.63;;
12363;SDS011;6246;50.826;4.712;2023-02-24T10:16:53;13.60;;;9.30;;
12363;SDS011;6246;50.826;4.712;2023-02-24T10:19:37;12.50;;;8.80;;
12363;SDS011;6246;50.826;4.712;2023-02-24T10:24:43;14.00;;;9.37;;
12363;SDS011;6246;50.826;4.712;2023-02-24T10:34:41;17.90;;;8.73;;
12363;SDS011;6246;50.826;4.712;2023-02-24T10:37:13;13.63;;;9.13;;
12363;SDS011;6246;50.826;4.712;2023-02-24T10:39:43;15.17;;;9.57;;
12363;SDS011;6246;50.826;4.712;2023-02-24T10:42:20;15.77;;;10.53;;
12363;SDS011;6246;50.826;4.712;2023-02-24T10:44:49;18.13;;;13.17;;
12363;SDS011;6246;50.826;4.712;2023-02-24T10:47:19;17.90;;;12.20;;
12363;SDS011;6246;50.826;4.712;2023-02-24T10:49:58;17.97;;;12.93;;
12363;SDS011;6246;50.826;4.712;2023-02-24T10:55:13;16.43;;;12.07;;
12363;SDS011;6246;50.826;4.712;2023-02-24T10:58:04;16.97;;;12.43;;
12363;SDS011;6246;50.826;4.712;2023-02-24T11:00:42;16.93;;;11.47;;
12363;SDS011;6246;50.826;4.712;2023-02-24T11:03:27;14.97;;;11.50;;
12363;SDS011;6246;50.826;4.712;2023-02-24T11:08:57;15.43;;;11.37;;
12363;SDS011;6246;50.826;4.712;2023-02-24T11:17:31;16.50;;;10.33;;
12363;SDS011;6246;50.826;4.712;2023-02-24T11:20:03;15.43;;;10.83;;
12363;SDS011;6246;50.826;4.712;2023-02-24T11:22:38;20.67;;;10.90;;
12363;SDS011;6246;50.826;4.712;2023-02-24T11:25:32;15.70;;;10.30;;
12363;SDS011;6246;50.826;4.712;2023-02-24T11:27:53;12.90;;;10.20;;
12363;SDS011;6246;50.826;4.712;2023-02-24T11:35:41;16.40;;;10.40;;
12363;SDS011;6246;50.826;4.712;2023-02-24T11:38:18;15.20;;;9.57;;
12363;SDS011;6246;50.826;4.712;2023-02-24T11:40:53;13.83;;;9.73;;
12363;SDS011;6246;50.826;4.712;2023-02-24T11:43:23;12.87;;;9.17;;
12363;SDS011;6246;50.826;4.712;2023-02-24T11:45:54;15.23;;;9.63;;
12363;SDS011;6246;50.826;4.712;2023-02-24T11:48:29;13.33;;;9.40;;
12363;SDS011;6246;50.826;4.712;2023-02-24T11:51:00;12.17;;;9.13;;
12363;SDS011;6246;50.826;4.712;2023-02-24T11:53:33;14.70;;;9.60;;
12363;SDS011;6246;50.826;4.712;2023-02-24T12:00:56;13.10;;;9.33;;
12363;SDS011;6246;50.826;4.712;2023-02-24T12:03:39;15.50;;;9.10;;
12363;SDS011;6246;50.826;4.712;2023-02-24T12:06:15;11.27;;;8.80;;
12363;SDS011;6246;50.826;4.712;2023-02-24T12:08:44;14.50;;;8.60;;
12363;SDS011;6246;50.826;4.712;2023-02-24T12:13:48;11.20;;;8.50;;
12363;SDS011;6246;50.826;4.712;2023-02-24T12:16:16;12.27;;;8.53;;
12363;SDS011;6246;50.826;4.712;2023-02-24T12:18:51;12.37;;;8.30;;
12363;SDS011;6246;50.826;4.712;2023-02-24T12:21:21;13.33;;;9.70;;
12363;SDS011;6246;50.826;4.712;2023-02-24T12:23:49;11.30;;;8.13;;
12363;SDS011;6246;50.826;4.712;2023-02-24T12:26:21;10.97;;;7.83;;
12363;SDS011;6246;50.826;4.712;2023-02-24T12:31:29;11.73;;;8.47;;
12363;SDS011;6246;50.826;4.712;2023-02-24T12:34:02;10.33;;;7.83;;
12363;SDS011;6246;50.826;4.712;2023-02-24T12:41:39;10.27;;;7.90;;
12363;SDS011;6246;50.826;4.712;2023-02-24T12:46:36;11.30;;;7.70;;
12363;SDS011;6246;50.826;4.712;2023-02-24T12:59:30;11.73;;;6.97;;
12363;SDS011;6246;50.826;4.712;2023-02-24T13:02:05;11.03;;;7.40;;
12363;SDS011;6246;50.826;4.712;2023-02-24T13:12:14;10.13;;;7.10;;
12363;SDS011;6246;50.826;4.712;2023-02-24T13:14:42;10.50;;;7.20;;
12363;SDS011;6246;50.826;4.712;2023-02-24T13:19:35;10.20;;;6.90;;
12363;SDS011;6246;50.826;4.712;2023-02-24T13:24:40;9.30;;;6.77;;
12363;SDS011;6246;50.826;4.712;2023-02-24T13:27:18;9.40;;;6.23;;
12363;SDS011;6246;50.826;4.712;2023-02-24T13:29:47;9.77;;;6.90;;
12363;SDS011;6246;50.826;4.712;2023-02-24T13:32:56;9.03;;;6.73;;
12363;SDS011;6246;50.826;4.712;2023-02-24T13:37:36;8.73;;;6.33;;
12363;SDS011;6246;50.826;4.712;2023-02-24T13:42:42;8.87;;;6.47;;
12363;SDS011;6246;50.826;4.712;2023-02-24T13:50:20;7.77;;;6.23;;
12363;SDS011;6246;50.826;4.712;2023-02-24T13:52:59;7.83;;;6.20;;
12363;SDS011;6246;50.826;4.712;2023-02-24T13:55:33;10.20;;;5.90;;
12363;SDS011;6246;50.826;4.712;2023-02-24T14:03:24;8.17;;;6.17;;
12363;SDS011;6246;50.826;4.712;2023-02-24T14:05:51;7.20;;;5.77;;
12363;SDS011;6246;50.826;4.712;2023-02-24T14:08:19;7.43;;;5.50;;
12363;SDS011;6246;50.826;4.712;2023-02-24T14:10:48;7.30;;;5.80;;
12363;SDS011;6246;50.826;4.712;2023-02-24T14:13:18;7.37;;;5.90;;
12363;SDS011;6246;50.826;4.712;2023-02-24T14:15:46;8.00;;;5.70;;
12363;SDS011;6246;50.826;4.712;2023-02-24T14:18:20;6.37;;;5.10;;
12363;SDS011;6246;50.826;4.712;2023-02-24T14:20:46;6.83;;;5.30;;
12363;SDS011;6246;50.826;4.712;2023-02-24T14:25:45;8.73;;;5.30;;
12363;SDS011;6246;50.826;4.712;2023-02-24T14:28:21;7.27;;;5.30;;
12363;SDS011;6246;50.826;4.712;2023-02-24T14:30:54;9.07;;;5.67;;
12363;SDS011;6246;50.826;4.712;2023-02-24T14:33:28;6.77;;;5.10;;
12363;SDS011;6246;50.826;4.712;2023-02-24T14:35:55;6.93;;;5.27;;
12363;SDS011;6246;50.826;4.712;2023-02-24T14:38:35;9.90;;;5.23;;
12363;SDS011;6246;50.826;4.712;2023-02-24T14:41:03;7.70;;;5.23;;
12363;SDS011;6246;50.826;4.712;2023-02-24T14:43:29;7.27;;;5.33;;
12363;SDS011;6246;50.826;4.712;2023-02-24T14:45:56;7.53;;;5.03;;
12363;SDS011;6246;50.826;4.712;2023-02-24T14:48:26;6.67;;;5.13;;
12363;SDS011;6246;50.826;4.712;2023-02-24T14:51:11;6.93;;;5.37;;
12363;SDS011;6246;50.826;4.712;2023-02-24T14:53:43;6.73;;;5.10;;
12363;SDS011;6246;50.826;4.712;2023-02-24T14:56:11;6.43;;;5.17;;
12363;SDS011;6246;50.826;4.712;2023-02-24T14:58:42;7.77;;;5.20;;
12363;SDS011;6246;50.826;4.712;2023-02-24T15:01:19;6.10;;;4.70;;
12363;SDS011;6246;50.826;4.712;2023-02-24T15:03:51;6.90;;;4.90;;
12363;SDS011;6246;50.826;4.712;2023-02-24T15:06:22;7.07;;;4.87;;
12363;SDS011;6246;50.826;4.712;2023-02-24T15:09:35;6.27;;;4.70;;
12363;SDS011;6246;50.826;4.712;2023-02-24T15:11:37;5.67;;;4.53;;
12363;SDS011;6246;50.826;4.712;2023-02-24T15:14:04;7.33;;;4.93;;
12363;SDS011;6246;50.826;4.712;2023-02-24T15:19:01;6.23;;;4.50;;
12363;SDS011;6246;50.826;4.712;2023-02-24T15:21:31;5.60;;;4.70;;
12363;SDS011;6246;50.826;4.712;2023-02-24T15:24:02;6.77;;;4.67;;
12363;SDS011;6246;50.826;4.712;2023-02-24T15:26:30;9.43;;;4.87;;
12363;SDS011;6246;50.826;4.712;2023-02-24T15:29:01;5.67;;;4.77;;
12363;SDS011;6246;50.826;4.712;2023-02-24T15:31:28;6.93;;;4.67;;
12363;SDS011;6246;50.826;4.712;2023-02-24T15:33:55;9.00;;;4.80;;
12363;SDS011;6246;50.826;4.712;2023-02-24T15:36:27;5.70;;;4.43;;
12363;SDS011;6246;50.826;4.712;2023-02-24T15:38:57;6.00;;;4.40;;
12363;SDS011;6246;50.826;4.712;2023-02-24T15:41:24;7.90;;;4.30;;
12363;SDS011;6246;50.826;4.712;2023-02-24T15:43:51;7.30;;;4.23;;
12363;SDS011;6246;50.826;4.712;2023-02-24T15:46:35;8.07;;;3.97;;
12363;SDS011;6246;50.826;4.712;2023-02-24T15:49:03;9.27;;;4.80;;
12363;SDS011;6246;50.826;4.712;2023-02-24T15:51:42;5.70;;;4.30;;
12363;SDS011;6246;50.826;4.712;2023-02-24T15:54:10;5.07;;;4.03;;
12363;SDS011;6246;50.826;4.712;2023-02-24T15:56:37;6.13;;;4.10;;
12363;SDS011;6246;50.826;4.712;2023-02-24T15:59:04;9.43;;;4.30;;
12363;SDS011;6246;50.826;4.712;2023-02-24T16:01:30;9.33;;;4.07;;
12363;SDS011;6246;50.826;4.712;2023-02-24T16:03:57;9.33;;;4.20;;
12363;SDS011;6246;50.826;4.712;2023-02-24T16:06:23;7.90;;;4.17;;
12363;SDS011;6246;50.826;4.712;2023-02-24T16:08:50;11.07;;;4.20;;
12363;SDS011;6246;50.826;4.712;2023-02-24T16:11:18;7.10;;;3.63;;
12363;SDS011;6246;50.826;4.712;2023-02-24T16:13:48;10.10;;;4.77;;
12363;SDS011;6246;50.826;4.712;2023-02-24T16:16:15;7.67;;;3.90;;
12363;SDS011;6246;50.826;4.712;2023-02-24T16:18:42;7.10;;;4.57;;
12363;SDS011;6246;50.826;4.712;2023-02-24T16:21:09;6.33;;;4.00;;
12363;SDS011;6246;50.826;4.712;2023-02-24T16:23:35;6.07;;;3.87;;
12363;SDS011;6246;50.826;4.712;2023-02-24T16:26:11;5.57;;;3.43;;
12363;SDS011;6246;50.826;4.712;2023-02-24T16:28:39;8.37;;;4.20;;
12363;SDS011;6246;50.826;4.712;2023-02-24T16:31:05;5.07;;;3.50;;
12363;SDS011;6246;50.826;4.712;2023-02-24T16:33:32;5.17;;;3.70;;
12363;SDS011;6246;50.826;4.712;2023-02-24T16:35:59;8.13;;;3.70;;
12363;SDS011;6246;50.826;4.712;2023-02-24T16:38:25;5.83;;;3.77;;
12363;SDS011;6246;50.826;4.712;2023-02-24T16:40:51;7.20;;;3.80;;
12363;SDS011;6246;50.826;4.712;2023-02-24T16:43:17;6.47;;;3.50;;
12363;SDS011;6246;50.826;4.712;2023-02-24T16:45:43;4.97;;;3.20;;
12363;SDS011;6246;50.826;4.712;2023-02-24T16:48:20;5.33;;;3.00;;
12363;SDS011;6246;50.826;4.712;2023-02-24T16:50:47;6.27;;;3.47;;
12363;SDS011;6246;50.826;4.712;2023-02-24T16:53:15;5.63;;;3.10;;
12363;SDS011;6246;50.826;4.712;2023-02-24T16:55:41;6.40;;;4.10;;
12363;SDS011;6246;50.826;4.712;2023-02-24T16:58:08;7.43;;;3.13;;
12363;SDS011;6246;50.826;4.712;2023-02-24T17:00:34;6.20;;;3.33;;
12363;SDS011;6246;50.826;4.712;2023-02-24T17:03:00;4.83;;;2.90;;
12363;SDS011;6246;50.826;4.712;2023-02-24T17:05:28;5.20;;;3.10;;
12363;SDS011;6246;50.826;4.712;2023-02-24T17:07:55;5.10;;;2.83;;
12363;SDS011;6246;50.826;4.712;2023-02-24T17:10:22;6.87;;;3.60;;
12363;SDS011;6246;50.826;4.712;2023-02-24T17:12:50;5.60;;;3.33;;
12363;SDS011;6246;50.826;4.712;2023-02-24T17:15:17;5.83;;;3.20;;
12363;SDS011;6246;50.826;4.712;2023-02-24T17:17:44;4.43;;;3.20;;
12363;SDS011;6246;50.826;4.712;2023-02-24T17:20:11;6.90;;;2.70;;
12363;SDS011;6246;50.826;4.712;2023-02-24T17:22:38;4.10;;;2.97;;
12363;SDS011;6246;50.826;4.712;2023-02-24T17:25:04;6.17;;;3.33;;
12363;SDS011;6246;50.826;4.712;2023-02-24T17:27:31;7.43;;;2.90;;
12363;SDS011;6246;50.826;4.712;2023-02-24T17:29:57;5.43;;;3.20;;
12363;SDS011;6246;50.826;4.712;2023-02-24T17:32:23;4.47;;;2.70;;
12363;SDS011;6246;50.826;4.712;2023-02-24T17:34:49;4.30;;;3.23;;
12363;SDS011;6246;50.826;4.712;2023-02-24T17:37:15;4.23;;;2.77;;
12363;SDS011;6246;50.826;4.712;2023-02-24T17:39:41;4.70;;;3.13;;
12363;SDS011;6246;50.826;4.712;2023-02-24T17:42:07;5.20;;;2.77;;
12363;SDS011;6246;50.826;4.712;2023-02-24T17:44:33;4.60;;;3.03;;
12363;SDS011;6246;50.826;4.712;2023-02-24T17:46:59;5.03;;;3.03;;
12363;SDS011;6246;50.826;4.712;2023-02-24T17:49:25;2.80;;;2.60;;